createdAt,value
2022-12-13T00:02:38.637Z,26.5
2022-12-13T00:08:17.920Z,26.1
2022-12-13T00:13:55.586Z,26.2
2022-12-13T00:19:33.996Z,30.5
2022-12-13T00:25:18.764Z,29.6
2022-12-13T00:30:56.528Z,27.4
2022-12-13T00:37:17.044Z,26.4
2022-12-13T00:42:38.854Z,26.2
2022-12-13T00:48:18.552Z,29.8
2022-12-13T00:53:56.221Z,30.9
2022-12-13T01:05:03.418Z,26.7
2022-12-13T01:11:19.052Z,26.2
2022-12-13T01:16:57.394Z,28.8
2022-12-13T01:22:37.011Z,31.2
2022-12-13T01:28:04.136Z,28.8
2022-12-13T01:33:47.641Z,27.3
2022-12-13T01:39:54.550Z,30.4
2022-12-13T01:46:00.810Z,29.6
2022-12-13T01:51:49.522Z,27.4
2022-12-13T01:57:45.314Z,26.3
2022-12-13T02:02:55.060Z,26
2022-12-13T02:08:31.013Z,29.6
2022-12-13T02:14:13.123Z,30.9
2022-12-13T02:19:58.712Z,24.8
2022-12-13T02:25:49.314Z,30
2022-12-13T02:32:01.243Z,30.5
2022-12-13T02:37:34.639Z,27.5
2022-12-13T02:43:33.651Z,29.5
2022-12-13T02:49:35.181Z,30.9
2022-12-13T02:55:16.014Z,27.8
2022-12-13T03:00:43.349Z,28.8
2022-12-13T03:06:22.897Z,31.3
2022-12-13T03:11:46.945Z,28.6
2022-12-13T03:17:14.448Z,27.3
2022-12-13T03:22:55.259Z,29.9
2022-12-13T03:28:35.338Z,31.3
2022-12-13T03:34:13.888Z,27.8
2022-12-13T03:40:35.759Z,28.7
2022-12-13T03:46:14.363Z,31.1
2022-12-13T03:52:08.247Z,28.9
2022-12-13T03:58:07.786Z,27
2022-12-13T04:03:53.970Z,30.5
2022-12-13T04:10:25.780Z,30
2022-12-13T04:16:07.929Z,27.4
2022-12-13T04:21:36.750Z,29.6
2022-12-13T04:27:19.250Z,27.8
2022-12-13T04:33:00.124Z,26.4
2022-12-13T04:38:28.158Z,30.2
2022-12-13T04:43:31.653Z,30.6
2022-12-13T04:49:22.120Z,27.8
2022-12-13T04:54:40.839Z,28.6
2022-12-13T05:00:20.408Z,31
2022-12-13T05:05:46.395Z,29.4
2022-12-13T05:11:51.564Z,27.6
2022-12-13T05:17:51.990Z,30.1
2022-12-13T05:23:22.290Z,31.9
2022-12-13T05:29:20.048Z,28.1
2022-12-13T05:35:01.288Z,26.8
2022-12-13T05:41:09.345Z,26.1
2022-12-13T05:46:47.036Z,25.6
2022-12-13T05:52:17.312Z,25.3
2022-12-13T05:57:52.149Z,28.1
2022-12-13T06:04:02.407Z,30.6
2022-12-13T06:10:09.948Z,27.8
2022-12-13T06:17:54.473Z,26.2
2022-12-13T06:23:40.268Z,25.6
2022-12-13T06:28:59.600Z,25
2022-12-13T06:35:27.633Z,27
2022-12-13T06:41:17.183Z,30.1
2022-12-13T06:47:10.917Z,28.3
2022-12-13T06:52:57.029Z,27.2
2022-12-13T06:58:42.495Z,29.6
2022-12-13T07:05:19.567Z,29.2
2022-12-13T07:11:13.557Z,27.4
2022-12-13T07:17:03.011Z,25.9
2022-12-13T07:22:58.231Z,25.5
2022-12-13T07:28:55.223Z,24.9
2022-12-13T07:34:48.610Z,28.6
2022-12-13T07:40:53.986Z,24.1
2022-12-13T07:46:38.021Z,25.8
2022-12-13T07:52:37.050Z,29.6
2022-12-13T07:58:41.185Z,29.2
2022-12-13T08:04:37.565Z,27.4
2022-12-13T08:10:31.004Z,29.3
2022-12-13T08:16:04.591Z,30.5
2022-12-13T08:22:52.637Z,27.6
2022-12-13T08:28:52.676Z,26
2022-12-13T08:34:45.621Z,25.6
2022-12-13T08:40:29.393Z,24.9
2022-12-13T08:46:17.892Z,27.9
2022-12-13T08:52:08.707Z,30.3
2022-12-13T08:58:01.769Z,28.3
2022-12-13T09:03:45.948Z,26.8
2022-12-13T09:10:26.145Z,29.6
2022-12-13T09:17:36.643Z,28.8
2022-12-13T09:24:40.558Z,26.9
2022-12-13T09:30:51.854Z,25.4
2022-12-13T09:36:52.115Z,26.3
2022-12-13T09:43:32.340Z,29.8
2022-12-13T09:51:41.326Z,27.9
2022-12-13T09:58:24.016Z,26.8
2022-12-13T10:04:09.846Z,30.3
2022-12-13T10:10:05.733Z,24.3
2022-12-13T10:15:54.518Z,28.8
2022-12-13T10:22:01.139Z,28.3
2022-12-13T10:29:10.699Z,24.6
2022-12-13T10:35:07.640Z,23.3
2022-12-13T10:40:49.099Z,23.3
2022-12-13T10:46:31.258Z,28.8
2022-12-13T10:52:31.194Z,30.6
2022-12-13T10:58:53.054Z,26.4
2022-12-13T11:04:59.887Z,28.3
2022-12-13T11:11:00.335Z,30.6
2022-12-13T11:16:46.964Z,26.6
2022-12-13T11:22:34.168Z,27.2
2022-12-13T11:28:43.882Z,30.2
2022-12-13T11:34:22.958Z,27.1
2022-12-13T11:40:04.985Z,25.7
2022-12-13T11:45:29.788Z,29.6
2022-12-13T11:51:24.609Z,28.3
2022-12-13T11:56:59.475Z,26.3
2022-12-13T12:03:45.833Z,29.4
2022-12-13T12:10:35.084Z,28.6
2022-12-13T12:16:28.337Z,26.1
2022-12-13T12:22:48.790Z,29
2022-12-13T12:28:35.440Z,25.3
2022-12-13T12:34:44.625Z,29.2
2022-12-13T12:40:22.412Z,28.9
2022-12-13T12:49:19.825Z,26.2
2022-12-13T12:55:05.178Z,24.8
2022-12-13T13:00:52.211Z,24.4
2022-12-13T13:06:53.527Z,24.1
2022-12-13T13:14:06.608Z,23.8
2022-12-13T13:19:45.039Z,24
2022-12-13T13:27:04.468Z,29
2022-12-13T13:33:02.465Z,30.2
2022-12-13T13:38:30.848Z,27.1
2022-12-13T13:44:24.153Z,25.7
2022-12-13T13:50:18.033Z,24.9
2022-12-13T13:56:07.405Z,24.7
2022-12-13T14:02:24.514Z,24.5
2022-12-13T14:08:14.026Z,24.3
2022-12-13T14:14:01.741Z,24.1
2022-12-13T14:20:01.131Z,23.9
2022-12-13T14:25:30.505Z,23.7
2022-12-13T14:31:36.536Z,23.5
2022-12-13T14:37:56.939Z,23.3
2022-12-13T14:43:44.386Z,23.1
2022-12-13T14:49:40.735Z,22.9
2022-12-13T14:55:32.577Z,22.8
2022-12-13T15:01:17.863Z,22.6
2022-12-13T15:07:21.484Z,22.4
2022-12-13T15:13:30.793Z,22.3
2022-12-13T15:19:10.661Z,30.2
2022-12-13T15:24:56.406Z,34.6
2022-12-13T15:30:51.286Z,38.6
2022-12-13T15:36:58.033Z,39.9
2022-12-13T15:42:52.730Z,40.3
2022-12-13T15:48:51.765Z,40.8
2022-12-13T15:54:33.865Z,40.8
2022-12-13T16:00:07.745Z,39.8
2022-12-13T16:05:55.629Z,38.8
2022-12-13T16:11:50.385Z,38.4
2022-12-13T16:17:59.415Z,37.3
2022-12-13T16:24:05.508Z,41.4
2022-12-13T16:29:54.607Z,42.1
2022-12-13T16:36:14.495Z,39.1
2022-12-13T16:42:31.786Z,38.9
2022-12-13T16:49:58.097Z,40.1
2022-12-13T16:55:31.684Z,37.6
2022-12-13T17:01:04.520Z,40.9
2022-12-13T17:06:49.511Z,39.4
2022-12-13T17:12:41.290Z,38.3
2022-12-13T17:18:29.072Z,38.6
2022-12-13T17:24:24.805Z,42
2022-12-13T17:30:02.430Z,39.1
2022-12-13T17:35:35.220Z,42.4
2022-12-13T17:41:17.231Z,42.3
2022-12-13T17:46:55.492Z,41.5
2022-12-13T17:52:42.070Z,39.7
2022-12-13T17:58:05.949Z,39.3
2022-12-13T18:03:29.946Z,41.7
2022-12-13T18:08:57.952Z,39.3
2022-12-13T18:15:19.142Z,38.8
2022-12-13T18:21:57.474Z,41.7
2022-12-13T18:27:32.839Z,41.1
2022-12-13T18:33:14.938Z,38.1
2022-12-13T18:38:53.975Z,40.6
2022-12-13T18:44:42.338Z,42.1
2022-12-13T18:50:11.901Z,42.8
2022-12-13T18:55:45.243Z,42.5
2022-12-13T19:01:18.425Z,42.4
2022-12-13T19:07:08.805Z,41.9
2022-12-13T19:12:24.471Z,42.3
2022-12-13T19:17:58.761Z,41.6
2022-12-13T19:23:27.053Z,38.6
2022-12-13T19:29:14.926Z,38.5
2022-12-13T19:34:53.672Z,38.6
2022-12-13T19:40:22.583Z,38.9
2022-12-13T19:46:06.152Z,40
2022-12-13T19:51:44.827Z,38.2
2022-12-13T19:57:24.176Z,40.7
2022-12-13T20:02:31.548Z,40.3
2022-12-13T20:08:15.516Z,37.8
2022-12-13T20:13:46.587Z,38.1
2022-12-13T20:19:25.777Z,36.9
2022-12-13T20:25:21.066Z,39.9
2022-12-13T20:30:46.955Z,41
2022-12-13T20:36:48.279Z,40.9
2022-12-13T20:42:26.801Z,39.9
2022-12-13T20:47:54.439Z,38.2
2022-12-13T20:53:24.181Z,38.4
2022-12-13T20:58:56.638Z,37.1
2022-12-13T21:04:20.303Z,37.1
2022-12-13T21:09:45.828Z,36.2
2022-12-13T21:15:34.529Z,36.9
2022-12-13T21:21:20.163Z,35.8
2022-12-13T21:27:03.003Z,35.3
2022-12-13T21:32:40.715Z,37
2022-12-13T21:38:22.187Z,35.6
2022-12-13T21:44:04.871Z,34.9
2022-12-13T21:50:29.123Z,34.8
2022-12-13T21:56:44.901Z,34.1
2022-12-13T22:02:07.745Z,32.9
2022-12-13T22:07:30.396Z,31.8
2022-12-13T22:12:59.359Z,31
2022-12-13T22:18:43.484Z,30.3
2022-12-13T22:24:21.339Z,29.8
2022-12-13T22:29:48.091Z,29.3
2022-12-13T22:35:26.178Z,28.3
2022-12-13T22:40:51.186Z,27.4
2022-12-13T22:46:29.660Z,27
2022-12-13T22:51:51.806Z,26.7
2022-12-13T22:57:34.314Z,26.3
2022-12-13T23:03:14.071Z,26.8
2022-12-13T23:08:43.355Z,31.1
2022-12-13T23:13:50.559Z,28.9
2022-12-13T23:20:10.195Z,27.2
2022-12-13T23:25:52.345Z,26.6
2022-12-13T23:31:15.183Z,26.4
2022-12-13T23:36:59.880Z,30.8
2022-12-13T23:42:10.561Z,29.2
2022-12-13T23:47:55.242Z,27.2
2022-12-13T23:53:34.060Z,26.4
2022-12-13T23:59:11.137Z,26.2
